Time;durP1;ratioP1;P1;durP2;ratioP2;P2;SDS_P1;SDS_P2;PMS_P1;PMS_P2;Temp;Humidity;BMP_temperature;BMP_pressure;BME280_temperature;BME280_humidity;BME280_pressure;Samples;Min_cycle;Max_cycle;Signal;HPM_P1;HPM_P2
2023/10/31 00:00:36;;;;;;;20.95;9.73;;;;;;;;;;5136156;27;20023;-74
2023/10/31 00:03:21;;;;;;;22.95;9.60;;;;;;;;;;5136686;27;20025;-74
2023/10/31 00:06:07;;;;;;;16.20;9.25;;;;;;;;;;5121865;27;20019;-74
2023/10/31 00:08:52;;;;;;;18.42;9.25;;;;;;;;;;5136165;27;20011;-74
2023/10/31 00:11:41;;;;;;;20.10;8.50;;;;;;;;;;5136900;27;20015;-74
2023/10/31 00:14:26;;;;;;;17.98;8.55;;;;;;;;;;5119927;28;20051;-74
2023/10/31 00:17:12;;;;;;;18.23;7.78;;;;;;;;;;5121820;28;20097;-75
2023/10/31 00:19:57;;;;;;;15.43;7.82;;;;;;;;;;5135441;27;20055;-76
2023/10/31 00:22:43;;;;;;;15.30;7.35;;;;;;;;;;5137378;28;20034;-74
2023/10/31 00:25:28;;;;;;;17.90;7.57;;;;;;;;;;5136598;28;20015;-73
2023/10/31 00:28:14;;;;;;;15.73;6.82;;;;;;;;;;5135055;28;20011;-74
2023/10/31 00:31:00;;;;;;;18.88;8.07;;;;;;;;;;5135548;28;20446;-75
2023/10/31 00:33:46;;;;;;;14.93;7.72;;;;;;;;;;5136184;28;20059;-74
2023/10/31 00:36:31;;;;;;;16.25;7.45;;;;;;;;;;5137041;28;20031;-75
2023/10/31 00:39:17;;;;;;;16.85;8.10;;;;;;;;;;5135217;28;20016;-74
2023/10/31 00:42:02;;;;;;;18.83;7.78;;;;;;;;;;5136098;28;20365;-74
2023/10/31 00:44:48;;;;;;;17.13;8.05;;;;;;;;;;5136079;28;20435;-75
2023/10/31 00:47:34;;;;;;;23.33;8.70;;;;;;;;;;5135901;28;20033;-74
2023/10/31 00:50:20;;;;;;;18.98;8.23;;;;;;;;;;5120079;28;20368;-74
2023/10/31 00:53:06;;;;;;;19.27;9.10;;;;;;;;;;5120541;28;20427;-75
2023/10/31 00:55:52;;;;;;;17.77;8.57;;;;;;;;;;5120804;28;20406;-75
2023/10/31 00:58:37;;;;;;;16.50;9.20;;;;;;;;;;5120186;28;20027;-75
2023/10/31 01:01:23;;;;;;;17.92;9.23;;;;;;;;;;5135246;28;20336;-74
2023/10/31 01:04:08;;;;;;;19.38;9.00;;;;;;;;;;5135776;28;20392;-75
2023/10/31 01:06:54;;;;;;;15.48;8.38;;;;;;;;;;5135647;28;20032;-74
2023/10/31 01:09:40;;;;;;;15.07;8.50;;;;;;;;;;5134352;28;20076;-75
2023/10/31 01:12:27;;;;;;;19.58;9.05;;;;;;;;;;5120729;28;20463;-75
2023/10/31 01:15:13;;;;;;;18.42;8.73;;;;;;;;;;5119415;28;20443;-74
2023/10/31 01:17:58;;;;;;;16.90;7.97;;;;;;;;;;5135555;28;20051;-75
2023/10/31 01:20:44;;;;;;;14.30;7.80;;;;;;;;;;5134906;28;20076;-75
2023/10/31 01:23:30;;;;;;;14.88;7.63;;;;;;;;;;5135332;28;20084;-74
2023/10/31 01:26:15;;;;;;;16.25;8.23;;;;;;;;;;5120455;28;20108;-74
2023/10/31 01:29:01;;;;;;;16.30;7.57;;;;;;;;;;5151158;28;20015;-75
2023/10/31 01:31:46;;;;;;;17.83;7.20;;;;;;;;;;5137736;27;20027;-74
2023/10/31 01:34:32;;;;;;;16.10;7.63;;;;;;;;;;5140629;27;20030;-75
2023/10/31 01:37:19;;;;;;;18.58;7.82;;;;;;;;;;5123810;27;20027;-74
2023/10/31 01:40:05;;;;;;;13.60;6.45;;;;;;;;;;5124272;27;20019;-75
2023/10/31 01:42:50;;;;;;;11.30;6.43;;;;;;;;;;5138311;27;20023;-74
2023/10/31 01:45:36;;;;;;;11.98;6.80;;;;;;;;;;5123294;27;20475;-75
2023/10/31 01:48:23;;;;;;;16.02;7.28;;;;;;;;;;5137922;27;20535;-75
2023/10/31 01:51:09;;;;;;;17.83;6.97;;;;;;;;;;5136997;27;20421;-74
2023/10/31 01:53:55;;;;;;;13.00;7.13;;;;;;;;;;5124188;27;20055;-75
2023/10/31 01:56:41;;;;;;;19.10;7.43;;;;;;;;;;5137654;27;20041;-74
2023/10/31 01:59:27;;;;;;;14.35;7.75;;;;;;;;;;5137156;27;20098;-74
2023/10/31 02:02:13;;;;;;;15.02;7.25;;;;;;;;;;5121769;27;20050;-75
2023/10/31 02:04:59;;;;;;;14.85;7.68;;;;;;;;;;5122922;27;20413;-74
2023/10/31 02:07:45;;;;;;;17.02;7.43;;;;;;;;;;5122743;27;20023;-74
2023/10/31 02:10:30;;;;;;;12.25;7.40;;;;;;;;;;5123261;27;20015;-74
2023/10/31 02:13:17;;;;;;;13.45;7.50;;;;;;;;;;5137727;27;20016;-74
2023/10/31 02:16:03;;;;;;;13.93;7.30;;;;;;;;;;5122649;27;20015;-74
2023/10/31 02:18:49;;;;;;;13.43;7.70;;;;;;;;;;5135740;27;20047;-74
2023/10/31 02:21:39;;;;;;;15.00;7.38;;;;;;;;;;5138188;27;20390;-74
2023/10/31 02:24:24;;;;;;;15.15;7.35;;;;;;;;;;5137518;27;20022;-74
2023/10/31 02:27:10;;;;;;;17.13;6.47;;;;;;;;;;5137122;27;20022;-74
2023/10/31 02:29:56;;;;;;;16.60;6.28;;;;;;;;;;5136596;27;20091;-74
2023/10/31 02:32:41;;;;;;;15.15;6.32;;;;;;;;;;5122851;27;20042;-74
2023/10/31 02:35:27;;;;;;;11.80;6.15;;;;;;;;;;5139491;27;20031;-74
2023/10/31 02:38:13;;;;;;;13.60;6.20;;;;;;;;;;5137874;27;20043;-74
2023/10/31 02:40:58;;;;;;;11.93;6.63;;;;;;;;;;5140199;27;20042;-74
2023/10/31 02:43:44;;;;;;;15.25;7.03;;;;;;;;;;5139310;27;20019;-75
2023/10/31 02:46:29;;;;;;;11.77;7.60;;;;;;;;;;5122588;27;20046;-74
2023/10/31 02:49:15;;;;;;;14.05;7.30;;;;;;;;;;5137099;27;20023;-74
2023/10/31 02:52:00;;;;;;;14.75;7.63;;;;;;;;;;5137513;27;20058;-74
2023/10/31 02:54:46;;;;;;;17.67;8.57;;;;;;;;;;5137978;27;20087;-74
2023/10/31 02:57:32;;;;;;;13.57;7.88;;;;;;;;;;5136496;27;20026;-75
2023/10/31 03:00:17;;;;;;;22.70;9.77;;;;;;;;;;5135914;27;20035;-74
2023/10/31 03:03:03;;;;;;;13.52;8.82;;;;;;;;;;5136868;27;20455;-74
2023/10/31 03:05:49;;;;;;;14.70;8.63;;;;;;;;;;5135715;27;20102;-74
2023/10/31 03:08:34;;;;;;;19.02;9.20;;;;;;;;;;5135897;27;20022;-74
2023/10/31 03:11:21;;;;;;;20.38;9.73;;;;;;;;;;5136551;27;20011;-74
2023/10/31 03:14:06;;;;;;;14.48;8.70;;;;;;;;;;5136096;27;20392;-75
2023/10/31 03:16:52;;;;;;;17.42;9.63;;;;;;;;;;5136583;27;20062;-75
2023/10/31 03:19:37;;;;;;;17.27;9.60;;;;;;;;;;5135128;27;20038;-74
2023/10/31 03:22:23;;;;;;;21.80;9.40;;;;;;;;;;5136797;27;20415;-75
2023/10/31 03:25:09;;;;;;;16.42;8.63;;;;;;;;;;5136210;27;20023;-75
2023/10/31 03:27:54;;;;;;;14.93;8.30;;;;;;;;;;5135487;27;20039;-74
2023/10/31 03:30:40;;;;;;;16.85;9.05;;;;;;;;;;5136494;27;20435;-74
2023/10/31 03:33:26;;;;;;;14.80;8.85;;;;;;;;;;5135503;27;20030;-75
2023/10/31 03:36:11;;;;;;;16.05;8.55;;;;;;;;;;5136088;27;20514;-75
2023/10/31 03:38:57;;;;;;;24.48;9.35;;;;;;;;;;5135744;27;20034;-75
2023/10/31 03:41:42;;;;;;;22.52;9.88;;;;;;;;;;5121209;27;20098;-75
2023/10/31 03:44:28;;;;;;;16.15;8.23;;;;;;;;;;5135862;27;20111;-74
2023/10/31 03:47:13;;;;;;;12.85;6.47;;;;;;;;;;5136097;27;20019;-74
2023/10/31 03:49:59;;;;;;;15.25;6.50;;;;;;;;;;5135991;27;20046;-74
2023/10/31 03:52:45;;;;;;;10.25;5.45;;;;;;;;;;5136205;27;20347;-74
2023/10/31 03:55:30;;;;;;;8.90;5.45;;;;;;;;;;5136017;27;20126;-75
2023/10/31 03:58:16;;;;;;;9.77;5.53;;;;;;;;;;5121115;27;20446;-74
2023/10/31 04:01:02;;;;;;;9.60;4.43;;;;;;;;;;5118472;27;20031;-74
2023/10/31 04:03:48;;;;;;;8.68;5.18;;;;;;;;;;5135435;27;20119;-75
2023/10/31 04:06:33;;;;;;;10.98;4.55;;;;;;;;;;5135169;27;20015;-75
2023/10/31 04:09:19;;;;;;;7.93;5.25;;;;;;;;;;5136216;27;20019;-76
2023/10/31 04:12:04;;;;;;;9.48;4.35;;;;;;;;;;5135093;27;20019;-75
2023/10/31 04:14:50;;;;;;;6.15;4.07;;;;;;;;;;5134851;27;20435;-75
2023/10/31 04:17:36;;;;;;;6.97;4.28;;;;;;;;;;5135711;28;20402;-73
2023/10/31 04:20:21;;;;;;;8.45;4.20;;;;;;;;;;5135638;28;20102;-75
2023/10/31 04:23:08;;;;;;;6.63;3.88;;;;;;;;;;5120709;28;20030;-75
2023/10/31 04:25:53;;;;;;;5.97;3.45;;;;;;;;;;5135185;28;20111;-75
2023/10/31 04:28:39;;;;;;;4.80;3.22;;;;;;;;;;5135588;28;20442;-75
2023/10/31 04:31:24;;;;;;;5.90;3.50;;;;;;;;;;5117955;28;20027;-74
2023/10/31 04:34:10;;;;;;;7.95;3.50;;;;;;;;;;5135206;28;20019;-74
2023/10/31 04:36:56;;;;;;;6.18;2.97;;;;;;;;;;5121747;28;20189;-75
2023/10/31 04:39:41;;;;;;;5.57;3.03;;;;;;;;;;5119359;28;20375;-75
2023/10/31 04:42:27;;;;;;;7.10;3.40;;;;;;;;;;5135458;28;20030;-75
2023/10/31 04:45:12;;;;;;;6.15;3.10;;;;;;;;;;5120661;28;20336;-75
2023/10/31 04:47:58;;;;;;;8.43;4.00;;;;;;;;;;5134980;28;20408;-75
2023/10/31 04:50:44;;;;;;;8.05;4.43;;;;;;;;;;5121204;28;20015;-74
2023/10/31 04:53:29;;;;;;;13.73;4.55;;;;;;;;;;5117780;28;20023;-75
2023/10/31 04:56:15;;;;;;;12.23;4.35;;;;;;;;;;5136018;28;20354;-75
2023/10/31 04:59:01;;;;;;;9.38;4.22;;;;;;;;;;5120446;28;20347;-75
2023/10/31 05:01:55;;;;;;;9.20;4.82;;;;;;;;;;5135697;28;20051;-74
2023/10/31 05:04:41;;;;;;;9.95;5.35;;;;;;;;;;5134828;27;20523;-74
2023/10/31 05:07:26;;;;;;;14.52;5.35;;;;;;;;;;5138908;27;20050;-74
2023/10/31 05:10:12;;;;;;;13.07;6.18;;;;;;;;;;5139366;27;20019;-75
2023/10/31 05:12:57;;;;;;;12.35;5.75;;;;;;;;;;5138064;27;20029;-74
2023/10/31 05:15:43;;;;;;;12.88;5.38;;;;;;;;;;5138042;27;20027;-74
2023/10/31 05:18:28;;;;;;;17.00;5.60;;;;;;;;;;5138266;27;20436;-75
2023/10/31 05:21:18;;;;;;;10.70;5.38;;;;;;;;;;5137950;27;20062;-75
2023/10/31 05:24:04;;;;;;;11.05;4.97;;;;;;;;;;5124803;27;20024;-74
2023/10/31 05:26:50;;;;;;;12.88;5.88;;;;;;;;;;5138151;27;20511;-75
2023/10/31 05:29:37;;;;;;;11.15;5.38;;;;;;;;;;5139397;27;20038;-74
2023/10/31 05:32:22;;;;;;;13.63;5.28;;;;;;;;;;5133833;27;20019;-75
2023/10/31 05:35:08;;;;;;;14.43;5.82;;;;;;;;;;5125544;27;20034;-75
2023/10/31 05:37:54;;;;;;;15.93;6.13;;;;;;;;;;5149792;27;20105;-75
2023/10/31 05:40:39;;;;;;;19.50;6.53;;;;;;;;;;5147609;27;20432;-75
2023/10/31 05:43:25;;;;;;;25.60;8.50;;;;;;;;;;5139502;27;20443;-74
2023/10/31 05:46:12;;;;;;;20.60;9.25;;;;;;;;;;5138564;27;20034;-75
2023/10/31 05:48:58;;;;;;;23.17;8.85;;;;;;;;;;5138033;27;20087;-74
2023/10/31 05:51:44;;;;;;;14.25;6.18;;;;;;;;;;5139305;27;20118;-76
2023/10/31 05:54:29;;;;;;;17.27;6.10;;;;;;;;;;5145586;27;20356;-75
2023/10/31 05:57:15;;;;;;;13.38;5.68;;;;;;;;;;5139007;27;20035;-75
2023/10/31 06:00:00;;;;;;;11.05;5.82;;;;;;;;;;5138794;27;20105;-75
2023/10/31 06:02:46;;;;;;;17.23;6.13;;;;;;;;;;5139431;27;20022;-75
2023/10/31 06:05:32;;;;;;;14.05;6.28;;;;;;;;;;5137291;27;20150;-74
2023/10/31 06:08:17;;;;;;;20.10;7.63;;;;;;;;;;5139369;27;20026;-75
2023/10/31 06:11:03;;;;;;;13.65;5.65;;;;;;;;;;5138778;27;20033;-75
2023/10/31 06:13:49;;;;;;;12.98;6.65;;;;;;;;;;5139680;27;20447;-75
2023/10/31 06:16:44;;;;;;;14.35;6.28;;;;;;;;;;5140324;27;20019;-76
2023/10/31 06:19:33;;;;;;;10.70;6.00;;;;;;;;;;5139265;27;20034;-75
2023/10/31 06:22:18;;;;;;;13.25;6.75;;;;;;;;;;5140496;27;20022;-74
2023/10/31 06:25:04;;;;;;;12.80;6.30;;;;;;;;;;5142835;27;20053;-75
2023/10/31 06:27:50;;;;;;;18.75;7.18;;;;;;;;;;5140264;27;20019;-76
2023/10/31 06:30:36;;;;;;;19.17;7.53;;;;;;;;;;5136812;27;20408;-77
2023/10/31 06:33:21;;;;;;;16.13;7.90;;;;;;;;;;5137331;27;20473;-75
2023/10/31 06:36:07;;;;;;;15.77;7.78;;;;;;;;;;5136799;27;20031;-75
2023/10/31 06:38:53;;;;;;;15.27;7.53;;;;;;;;;;5137533;27;20102;-74
2023/10/31 06:41:38;;;;;;;19.58;8.48;;;;;;;;;;5136712;27;20139;-74
2023/10/31 06:44:24;;;;;;;15.80;8.80;;;;;;;;;;5120343;27;20033;-74
2023/10/31 06:47:10;;;;;;;15.13;8.68;;;;;;;;;;5137817;27;20034;-75
2023/10/31 06:49:55;;;;;;;17.90;9.18;;;;;;;;;;5136778;27;20046;-76
2023/10/31 06:52:41;;;;;;;19.90;9.88;;;;;;;;;;5138247;27;20015;-75
2023/10/31 06:55:26;;;;;;;16.75;8.75;;;;;;;;;;5136528;27;20043;-76
2023/10/31 06:58:12;;;;;;;20.92;9.05;;;;;;;;;;5136383;27;20106;-76
2023/10/31 07:00:58;;;;;;;18.45;8.63;;;;;;;;;;5136541;27;20110;-76
2023/10/31 07:03:43;;;;;;;17.17;9.25;;;;;;;;;;5138376;27;20019;-77
2023/10/31 07:06:29;;;;;;;16.20;8.75;;;;;;;;;;5137517;27;20027;-75
2023/10/31 07:09:14;;;;;;;13.23;7.93;;;;;;;;;;5136827;27;20047;-77
2023/10/31 07:12:00;;;;;;;16.73;7.72;;;;;;;;;;5136994;27;20022;-72
2023/10/31 07:14:46;;;;;;;15.88;7.53;;;;;;;;;;5137205;27;20019;-72
2023/10/31 07:17:31;;;;;;;17.58;8.43;;;;;;;;;;5136749;27;20347;-73
2023/10/31 07:20:17;;;;;;;22.83;9.25;;;;;;;;;;5136879;27;20367;-73
2023/10/31 07:23:02;;;;;;;24.48;10.07;;;;;;;;;;5136258;27;20050;-71
2023/10/31 07:25:48;;;;;;;17.92;8.05;;;;;;;;;;5136319;27;20016;-73
2023/10/31 07:28:34;;;;;;;19.83;8.48;;;;;;;;;;5135402;27;20027;-72
2023/10/31 07:31:20;;;;;;;12.18;7.40;;;;;;;;;;5135930;27;20034;-72
2023/10/31 07:34:05;;;;;;;19.30;8.50;;;;;;;;;;5121750;27;20111;-72
2023/10/31 07:36:51;;;;;;;18.30;8.15;;;;;;;;;;5135473;27;20027;-72
2023/10/31 07:39:36;;;;;;;12.85;6.90;;;;;;;;;;5135962;27;20015;-73
2023/10/31 07:42:22;;;;;;;10.65;6.85;;;;;;;;;;5136262;27;20031;-72
2023/10/31 07:45:08;;;;;;;10.05;6.03;;;;;;;;;;5120366;27;20019;-73
2023/10/31 07:47:53;;;;;;;11.13;6.07;;;;;;;;;;5121299;27;20030;-72
2023/10/31 07:50:41;;;;;;;10.45;6.13;;;;;;;;;;5121178;27;20355;-73
2023/10/31 07:53:26;;;;;;;12.55;5.80;;;;;;;;;;5136413;27;20019;-72
2023/10/31 07:56:22;;;;;;;16.27;5.88;;;;;;;;;;5135130;27;20030;-72
2023/10/31 07:59:08;;;;;;;11.75;5.47;;;;;;;;;;5134958;27;20023;-73
2023/10/31 08:01:54;;;;;;;17.35;7.75;;;;;;;;;;5135044;27;20027;-72
2023/10/31 08:04:39;;;;;;;9.98;4.97;;;;;;;;;;5136288;27;20019;-73
2023/10/31 08:07:29;;;;;;;14.40;7.55;;;;;;;;;;5134933;27;20406;-73
2023/10/31 08:10:15;;;;;;;11.95;5.38;;;;;;;;;;5135495;27;20431;-71
2023/10/31 08:13:01;;;;;;;13.77;6.10;;;;;;;;;;5120689;27;20023;-72
2023/10/31 08:15:46;;;;;;;15.70;4.95;;;;;;;;;;5136080;27;20015;-72
2023/10/31 08:18:32;;;;;;;24.65;5.22;;;;;;;;;;5134851;27;20022;-72
2023/10/31 08:21:17;;;;;;;12.85;5.55;;;;;;;;;;5134972;28;20023;-71
2023/10/31 08:24:03;;;;;;;16.10;5.85;;;;;;;;;;5135098;28;20034;-72
2023/10/31 08:26:49;;;;;;;12.52;4.80;;;;;;;;;;5134761;28;20018;-71
2023/10/31 08:29:35;;;;;;;17.35;5.40;;;;;;;;;;5135842;28;20023;-71
2023/10/31 08:32:22;;;;;;;9.85;5.05;;;;;;;;;;5135781;28;20544;-71
2023/10/31 08:35:07;;;;;;;14.82;6.03;;;;;;;;;;5135547;28;20030;-70
2023/10/31 08:37:53;;;;;;;8.73;5.03;;;;;;;;;;5134826;28;20030;-71
2023/10/31 08:40:39;;;;;;;12.95;5.65;;;;;;;;;;5123216;27;20160;-71
2023/10/31 08:43:24;;;;;;;14.15;5.38;;;;;;;;;;5139536;27;20034;-71
2023/10/31 08:46:10;;;;;;;14.85;6.10;;;;;;;;;;5138628;27;20467;-72
2023/10/31 08:48:56;;;;;;;13.48;6.18;;;;;;;;;;5138510;27;20015;-72
2023/10/31 08:51:42;;;;;;;19.70;6.90;;;;;;;;;;5139164;27;20352;-71
2023/10/31 08:54:28;;;;;;;17.83;6.38;;;;;;;;;;5137924;27;20115;-73
2023/10/31 08:57:14;;;;;;;15.82;7.47;;;;;;;;;;5124177;27;20023;-71
2023/10/31 09:00:00;;;;;;;29.73;7.68;;;;;;;;;;5138762;27;20019;-71
2023/10/31 09:02:46;;;;;;;14.90;7.72;;;;;;;;;;5139286;27;20019;-72
2023/10/31 09:05:31;;;;;;;16.15;6.50;;;;;;;;;;5139318;27;20027;-71
2023/10/31 09:08:17;;;;;;;16.70;6.38;;;;;;;;;;5137035;27;20011;-73
2023/10/31 09:11:03;;;;;;;19.20;6.22;;;;;;;;;;5138099;27;20019;-73
2023/10/31 09:13:49;;;;;;;14.90;5.78;;;;;;;;;;5123704;27;20024;-72
2023/10/31 09:16:35;;;;;;;12.25;6.53;;;;;;;;;;5138932;27;20435;-72
2023/10/31 09:19:20;;;;;;;17.15;6.75;;;;;;;;;;5138909;27;20022;-72
2023/10/31 09:22:06;;;;;;;11.68;6.63;;;;;;;;;;5138817;27;20113;-72
2023/10/31 09:24:51;;;;;;;14.00;6.03;;;;;;;;;;5139040;27;20084;-72
2023/10/31 09:27:38;;;;;;;12.48;5.97;;;;;;;;;;5137939;27;20008;-72
2023/10/31 09:30:23;;;;;;;9.70;4.90;;;;;;;;;;5138425;27;20106;-71
2023/10/31 09:33:09;;;;;;;13.80;4.78;;;;;;;;;;5138057;27;20011;-73
2023/10/31 09:35:54;;;;;;;6.68;3.75;;;;;;;;;;5137476;27;20023;-72
2023/10/31 09:38:40;;;;;;;6.90;3.50;;;;;;;;;;5138419;27;20101;-71
2023/10/31 09:41:26;;;;;;;10.85;3.55;;;;;;;;;;5137189;27;20011;-72
2023/10/31 09:44:12;;;;;;;14.52;3.92;;;;;;;;;;5122940;27;20443;-72
2023/10/31 09:46:58;;;;;;;7.50;4.55;;;;;;;;;;5138035;27;20126;-71
2023/10/31 09:49:44;;;;;;;8.55;3.60;;;;;;;;;;5138429;27;20439;-71
2023/10/31 09:52:29;;;;;;;8.48;3.85;;;;;;;;;;5136929;27;20053;-72
2023/10/31 09:55:15;;;;;;;8.68;3.67;;;;;;;;;;5138258;27;20050;-72
2023/10/31 09:58:00;;;;;;;7.00;3.40;;;;;;;;;;5138395;27;20034;-72
2023/10/31 10:00:46;;;;;;;6.78;3.60;;;;;;;;;;5123097;27;20019;-72
2023/10/31 10:03:32;;;;;;;8.95;3.35;;;;;;;;;;5137018;27;20091;-72
2023/10/31 10:06:21;;;;;;;7.03;3.38;;;;;;;;;;5137357;27;20027;-71
2023/10/31 10:09:08;;;;;;;7.05;3.13;;;;;;;;;;5136959;27;20110;-71
2023/10/31 10:11:54;;;;;;;7.90;3.60;;;;;;;;;;5137407;27;20034;-72
2023/10/31 10:14:40;;;;;;;5.13;3.05;;;;;;;;;;5138137;27;20027;-73
2023/10/31 10:17:26;;;;;;;6.22;3.10;;;;;;;;;;5136715;27;20023;-71
2023/10/31 10:20:12;;;;;;;5.05;3.28;;;;;;;;;;5137279;27;20019;-72
2023/10/31 10:23:02;;;;;;;7.13;3.58;;;;;;;;;;5137656;27;20487;-74
2023/10/31 10:25:49;;;;;;;6.30;3.47;;;;;;;;;;5136587;27;20130;-72
2023/10/31 10:28:35;;;;;;;9.68;3.60;;;;;;;;;;5137268;27;20080;-71
2023/10/31 10:31:23;;;;;;;7.15;3.58;;;;;;;;;;5136544;27;20083;-72
2023/10/31 10:34:09;;;;;;;5.85;3.25;;;;;;;;;;5136306;27;20168;-72
2023/10/31 10:36:56;;;;;;;7.75;3.53;;;;;;;;;;5121895;27;20038;-73
2023/10/31 10:39:44;;;;;;;7.88;3.55;;;;;;;;;;5136271;27;20031;-72
2023/10/31 10:42:38;;;;;;;9.00;3.80;;;;;;;;;;5122247;27;20054;-72
2023/10/31 10:45:24;;;;;;;5.90;3.17;;;;;;;;;;5137738;27;20019;-72
2023/10/31 10:48:15;;;;;;;7.80;3.03;;;;;;;;;;5135775;27;20019;-72
2023/10/31 10:51:06;;;;;;;8.95;3.30;;;;;;;;;;5136421;27;20307;-71
2023/10/31 10:53:57;;;;;;;6.90;3.10;;;;;;;;;;5136263;27;20043;-71
2023/10/31 10:56:46;;;;;;;8.57;3.17;;;;;;;;;;5135989;27;20435;-72
2023/10/31 10:59:52;;;;;;;7.63;3.58;;;;;;;;;;5136442;27;20110;-72
2023/10/31 11:02:39;;;;;;;8.32;3.42;;;;;;;;;;5136283;27;20015;-73
2023/10/31 11:05:24;;;;;;;12.93;3.55;;;;;;;;;;5137451;27;20023;-72
2023/10/31 11:08:11;;;;;;;7.15;2.90;;;;;;;;;;5136350;27;20034;-72
2023/10/31 11:10:57;;;;;;;7.38;3.40;;;;;;;;;;5137005;27;20015;-73
2023/10/31 11:13:43;;;;;;;9.50;3.65;;;;;;;;;;5136306;27;20042;-73
2023/10/31 11:16:33;;;;;;;9.32;3.70;;;;;;;;;;5136658;27;20020;-72
2023/10/31 11:19:19;;;;;;;6.68;3.75;;;;;;;;;;5135589;27;20016;-71
2023/10/31 11:22:06;;;;;;;8.30;3.65;;;;;;;;;;5135490;27;20031;-71
2023/10/31 11:24:52;;;;;;;6.38;3.20;;;;;;;;;;5135771;27;20038;-71
2023/10/31 11:27:38;;;;;;;9.45;3.72;;;;;;;;;;5135725;27;20435;-71
2023/10/31 11:30:23;;;;;;;7.68;3.50;;;;;;;;;;5135384;27;20030;-71
2023/10/31 11:33:13;;;;;;;4.93;3.17;;;;;;;;;;5136193;27;20031;-71
2023/10/31 11:36:01;;;;;;;9.30;3.40;;;;;;;;;;5136173;27;20023;-72
2023/10/31 11:38:47;;;;;;;6.80;3.30;;;;;;;;;;5120731;27;20030;-71
2023/10/31 11:41:32;;;;;;;9.30;3.28;;;;;;;;;;5135581;27;20015;-72
2023/10/31 11:44:21;;;;;;;5.97;3.00;;;;;;;;;;5135282;27;20049;-72
2023/10/31 11:47:15;;;;;;;8.00;3.38;;;;;;;;;;5135565;27;20107;-71
2023/10/31 11:50:01;;;;;;;8.32;3.38;;;;;;;;;;5120110;27;20011;-72
2023/10/31 11:53:04;;;;;;;10.07;3.20;;;;;;;;;;5121446;27;20026;-71
2023/10/31 11:55:50;;;;;;;4.97;3.20;;;;;;;;;;5135381;27;20050;-71
2023/10/31 11:58:35;;;;;;;6.65;2.88;;;;;;;;;;5135133;27;20034;-71
2023/10/31 12:01:21;;;;;;;7.90;3.78;;;;;;;;;;5136440;27;20029;-73
2023/10/31 12:04:06;;;;;;;5.95;3.40;;;;;;;;;;5134931;27;20019;-71
2023/10/31 12:07:00;;;;;;;4.68;2.90;;;;;;;;;;5135783;27;20019;-72
2023/10/31 12:09:48;;;;;;;8.52;5.97;;;;;;;;;;5120395;27;20015;-71
2023/10/31 12:12:34;;;;;;;6.80;3.00;;;;;;;;;;5118670;27;20054;-72
2023/10/31 12:15:19;;;;;;;15.13;3.28;;;;;;;;;;5133971;27;20019;-72
2023/10/31 12:18:05;;;;;;;4.65;2.80;;;;;;;;;;5135811;27;20402;-71
2023/10/31 12:20:51;;;;;;;9.35;2.80;;;;;;;;;;5134908;27;20027;-72
2023/10/31 12:23:37;;;;;;;10.88;2.63;;;;;;;;;;5135820;28;20106;-71
2023/10/31 12:26:22;;;;;;;10.35;3.08;;;;;;;;;;5135179;28;20031;-72
2023/10/31 12:29:08;;;;;;;11.10;3.35;;;;;;;;;;5121639;28;20450;-71
2023/10/31 12:31:54;;;;;;;11.25;3.20;;;;;;;;;;5134401;28;20094;-71
2023/10/31 12:34:43;;;;;;;4.53;2.60;;;;;;;;;;5135127;28;20023;-72
2023/10/31 12:37:29;;;;;;;8.95;3.20;;;;;;;;;;5120199;28;20029;-71
2023/10/31 12:40:16;;;;;;;13.77;5.35;;;;;;;;;;5134178;28;20019;-71
2023/10/31 12:43:03;;;;;;;8.52;2.90;;;;;;;;;;5134336;28;20076;-72
2023/10/31 12:45:48;;;;;;;4.90;2.70;;;;;;;;;;5134981;28;20024;-72
2023/10/31 12:48:37;;;;;;;7.45;2.60;;;;;;;;;;5135354;28;20015;-72
2023/10/31 12:51:22;;;;;;;6.25;2.45;;;;;;;;;;5134543;28;20012;-72
2023/10/31 12:54:08;;;;;;;8.05;2.70;;;;;;;;;;5134369;28;20046;-72
2023/10/31 12:56:58;;;;;;;7.07;2.63;;;;;;;;;;5135335;28;20023;-72
2023/10/31 12:59:43;;;;;;;10.05;3.30;;;;;;;;;;5134016;28;20027;-72
2023/10/31 13:02:29;;;;;;;23.67;4.88;;;;;;;;;;5135174;28;20031;-72
2023/10/31 13:05:18;;;;;;;44.50;7.47;;;;;;;;;;5135003;28;20057;-72
2023/10/31 13:08:06;;;;;;;27.98;5.68;;;;;;;;;;5134732;28;20050;-71
2023/10/31 13:10:53;;;;;;;22.38;5.13;;;;;;;;;;5120128;28;20023;-72
2023/10/31 13:13:38;;;;;;;15.13;4.75;;;;;;;;;;5133802;28;20019;-71
2023/10/31 13:16:26;;;;;;;8.07;3.95;;;;;;;;;;5134388;28;20016;-72
2023/10/31 13:19:12;;;;;;;47.38;7.75;;;;;;;;;;5134708;28;20449;-72
2023/10/31 13:21:57;;;;;;;21.10;4.75;;;;;;;;;;5134899;28;20023;-71
2023/10/31 13:24:43;;;;;;;48.25;7.47;;;;;;;;;;5119600;28;20352;-71
2023/10/31 13:27:29;;;;;;;33.42;6.43;;;;;;;;;;5137906;27;20019;-72
2023/10/31 13:30:17;;;;;;;38.97;7.55;;;;;;;;;;5138418;27;20400;-71
2023/10/31 13:33:03;;;;;;;44.97;7.03;;;;;;;;;;5137459;27;20011;-72
2023/10/31 13:35:48;;;;;;;26.00;6.30;;;;;;;;;;5137894;27;20519;-72
2023/10/31 13:38:35;;;;;;;23.50;6.18;;;;;;;;;;5138909;27;20034;-71
2023/10/31 13:41:21;;;;;;;18.73;5.43;;;;;;;;;;5138921;27;20023;-72
2023/10/31 13:44:07;;;;;;;13.57;5.40;;;;;;;;;;5137989;27;20409;-72
2023/10/31 13:46:52;;;;;;;21.80;5.82;;;;;;;;;;5138635;27;20432;-72
2023/10/31 13:49:38;;;;;;;10.57;4.95;;;;;;;;;;5138382;27;20027;-71
2023/10/31 13:52:23;;;;;;;26.65;6.35;;;;;;;;;;5138277;27;20019;-71
2023/10/31 13:55:09;;;;;;;11.60;4.63;;;;;;;;;;5137138;27;20038;-71
2023/10/31 13:57:54;;;;;;;11.18;5.13;;;;;;;;;;5137865;27;20039;-71
2023/10/31 14:00:40;;;;;;;12.85;4.53;;;;;;;;;;5137233;27;20436;-71
2023/10/31 14:03:26;;;;;;;11.00;4.43;;;;;;;;;;5137719;27;20023;-72
2023/10/31 14:06:12;;;;;;;14.38;4.47;;;;;;;;;;5121174;27;20463;-72
2023/10/31 14:08:58;;;;;;;13.70;5.10;;;;;;;;;;5122743;27;20066;-72
2023/10/31 14:11:44;;;;;;;14.27;4.60;;;;;;;;;;5137325;27;20015;-72
2023/10/31 14:14:29;;;;;;;16.42;6.13;;;;;;;;;;5123141;27;20081;-71
2023/10/31 14:17:18;;;;;;;16.33;5.75;;;;;;;;;;5136748;27;20029;-72
2023/10/31 14:20:04;;;;;;;11.88;5.80;;;;;;;;;;5137333;27;20375;-71
2023/10/31 14:22:50;;;;;;;12.80;5.25;;;;;;;;;;5137414;27;20023;-72
2023/10/31 14:25:35;;;;;;;13.27;5.45;;;;;;;;;;5137179;27;20412;-71
2023/10/31 14:28:21;;;;;;;12.40;5.88;;;;;;;;;;5136501;27;20102;-72
2023/10/31 14:31:06;;;;;;;14.68;5.10;;;;;;;;;;5137150;27;20055;-72
2023/10/31 14:33:52;;;;;;;13.02;5.57;;;;;;;;;;5136470;27;20019;-72
2023/10/31 14:36:38;;;;;;;14.80;5.20;;;;;;;;;;5137799;27;20026;-71
2023/10/31 14:39:23;;;;;;;11.25;5.10;;;;;;;;;;5136528;27;20022;-71
2023/10/31 14:42:09;;;;;;;15.88;5.18;;;;;;;;;;5137281;27;20019;-72
2023/10/31 14:44:56;;;;;;;19.35;5.72;;;;;;;;;;5137211;27;20095;-72
2023/10/31 14:47:42;;;;;;;24.90;6.32;;;;;;;;;;5136950;27;20023;-71
2023/10/31 14:50:28;;;;;;;34.20;7.75;;;;;;;;;;5122106;27;20443;-71
2023/10/31 14:53:14;;;;;;;26.08;7.93;;;;;;;;;;5137014;27;20027;-71
2023/10/31 14:56:01;;;;;;;27.02;9.77;;;;;;;;;;5136812;27;20065;-71
2023/10/31 14:58:49;;;;;;;35.25;8.40;;;;;;;;;;5138166;27;20023;-70
2023/10/31 15:01:35;;;;;;;20.95;7.22;;;;;;;;;;5123462;27;20110;-70
2023/10/31 15:04:20;;;;;;;38.72;7.75;;;;;;;;;;5138142;27;20092;-71
2023/10/31 15:07:06;;;;;;;35.08;7.97;;;;;;;;;;5137870;27;20043;-71
2023/10/31 15:09:52;;;;;;;25.55;8.15;;;;;;;;;;5137834;27;20027;-71
2023/10/31 15:12:37;;;;;;;38.47;10.07;;;;;;;;;;5127464;27;20102;-72
2023/10/31 15:15:23;;;;;;;33.97;8.02;;;;;;;;;;5135729;27;20030;-72
2023/10/31 15:18:09;;;;;;;26.85;8.55;;;;;;;;;;5136304;27;20364;-71
2023/10/31 15:20:57;;;;;;;28.42;8.95;;;;;;;;;;5136401;27;20098;-72
2023/10/31 15:23:42;;;;;;;35.28;9.43;;;;;;;;;;5136116;27;20030;-71
2023/10/31 15:26:29;;;;;;;30.27;8.90;;;;;;;;;;5135496;27;20366;-71
2023/10/31 15:29:15;;;;;;;29.40;8.82;;;;;;;;;;5135550;27;20027;-71
2023/10/31 15:32:00;;;;;;;21.52;8.45;;;;;;;;;;5135134;27;20047;-71
2023/10/31 15:34:46;;;;;;;24.15;9.70;;;;;;;;;;5135081;27;20015;-71
2023/10/31 15:37:32;;;;;;;28.25;10.30;;;;;;;;;;5136328;27;20015;-72
2023/10/31 15:40:17;;;;;;;28.58;10.50;;;;;;;;;;5135946;27;20085;-72
2023/10/31 15:43:03;;;;;;;25.17;9.57;;;;;;;;;;5135224;27;20030;-72
2023/10/31 15:45:48;;;;;;;30.02;10.43;;;;;;;;;;5136667;27;20115;-70
2023/10/31 15:48:34;;;;;;;31.70;10.30;;;;;;;;;;5120471;27;20019;-71
2023/10/31 15:51:20;;;;;;;34.20;10.80;;;;;;;;;;5135298;27;20015;-71
2023/10/31 15:54:05;;;;;;;28.88;9.98;;;;;;;;;;5135154;27;20047;-71
2023/10/31 15:56:51;;;;;;;35.03;10.27;;;;;;;;;;5135532;27;20023;-72
2023/10/31 15:59:37;;;;;;;29.60;9.80;;;;;;;;;;5135144;27;20435;-71
2023/10/31 16:02:23;;;;;;;38.95;10.75;;;;;;;;;;5136536;27;20027;-71
2023/10/31 16:05:08;;;;;;;34.40;9.98;;;;;;;;;;5135615;27;20019;-71
2023/10/31 16:07:54;;;;;;;52.90;11.20;;;;;;;;;;5134892;27;20057;-72
2023/10/31 16:10:39;;;;;;;45.30;11.45;;;;;;;;;;5135415;27;20015;-71
2023/10/31 16:13:25;;;;;;;35.50;11.07;;;;;;;;;;5120380;27;20532;-71
2023/10/31 16:16:11;;;;;;;45.88;11.55;;;;;;;;;;5119815;27;20031;-71
2023/10/31 16:18:56;;;;;;;42.95;13.07;;;;;;;;;;5120183;27;20332;-72
2023/10/31 16:21:42;;;;;;;35.03;13.73;;;;;;;;;;5135525;27;20026;-72
2023/10/31 16:24:27;;;;;;;39.50;13.88;;;;;;;;;;5135347;28;20118;-71